sensor_id;sensor_type;location;lat;lon;timestamp;pressure;altitude;pressure_sealevel;temperature;humidity
8101;BME280;4093;53.470;9.832;2023-09-19T00:00:38;100345.56;;;19.78;89.07
8101;BME280;4093;53.470;9.832;2023-09-19T00:03:07;100354.16;;;19.94;88.02
8101;BME280;4093;53.470;9.832;2023-09-19T00:05:37;100353.63;;;19.75;89.17
8101;BME280;4093;53.470;9.832;2023-09-19T00:08:06;100376.47;;;20.01;88.03
8101;BME280;4093;53.470;9.832;2023-09-19T00:10:34;100378.22;;;20.42;86.47
8101;BME280;4093;53.470;9.832;2023-09-19T00:13:03;100354.94;;;20.23;85.30
8101;BME280;4093;53.470;9.832;2023-09-19T00:15:38;100366.47;;;20.21;86.23
8101;BME280;4093;53.470;9.832;2023-09-19T00:18:06;100362.09;;;20.21;85.79
8101;BME280;4093;53.470;9.832;2023-09-19T00:20:36;100350.88;;;20.32;85.65
8101;BME280;4093;53.470;9.832;2023-09-19T00:23:05;100361.75;;;20.40;86.19
8101;BME280;4093;53.470;9.832;2023-09-19T00:25:35;100366.25;;;20.38;85.96
8101;BME280;4093;53.470;9.832;2023-09-19T00:28:04;100351.09;;;20.15;86.43
8101;BME280;4093;53.470;9.832;2023-09-19T00:30:34;100356.69;;;19.96;86.82
8101;BME280;4093;53.470;9.832;2023-09-19T00:33:04;100338.53;;;19.78;87.89
8101;BME280;4093;53.470;9.832;2023-09-19T00:35:32;100358.66;;;20.06;87.09
8101;BME280;4093;53.470;9.832;2023-09-19T00:38:00;100368.75;;;20.40;85.97
8101;BME280;4093;53.470;9.832;2023-09-19T00:40:30;100347.13;;;20.09;86.92
8101;BME280;4093;53.470;9.832;2023-09-19T00:42:59;100338.88;;;19.86;87.24
8101;BME280;4093;53.470;9.832;2023-09-19T00:45:27;100366.47;;;20.21;86.70
8101;BME280;4093;53.470;9.832;2023-09-19T00:47:56;100354.88;;;20.10;87.24
8101;BME280;4093;53.470;9.832;2023-09-19T00:50:27;100360.50;;;20.04;87.76
8101;BME280;4093;53.470;9.832;2023-09-19T00:52:55;100358.25;;;20.13;86.31
8101;BME280;4093;53.470;9.832;2023-09-19T00:55:24;100370.69;;;20.23;86.66
8101;BME280;4093;53.470;9.832;2023-09-19T00:57:52;100369.97;;;20.48;85.48
8101;BME280;4093;53.470;9.832;2023-09-19T01:00:22;100377.06;;;20.61;84.73
8101;BME280;4093;53.470;9.832;2023-09-19T01:02:51;100378.59;;;20.50;84.25
8101;BME280;4093;53.470;9.832;2023-09-19T01:05:19;100370.91;;;20.47;84.68
8101;BME280;4093;53.470;9.832;2023-09-19T01:07:48;100358.41;;;19.82;88.15
8101;BME280;4093;53.470;9.832;2023-09-19T01:10:17;100385.97;;;20.31;86.15
8101;BME280;4093;53.470;9.832;2023-09-19T01:12:55;100389.25;;;20.34;85.92
8101;BME280;4093;53.470;9.832;2023-09-19T01:15:36;100374.78;;;19.86;88.52
8101;BME280;4093;53.470;9.832;2023-09-19T01:18:14;100373.84;;;20.01;87.44
8101;BME280;4093;53.470;9.832;2023-09-19T01:20:50;100389.97;;;20.37;86.43
8101;BME280;4093;53.470;9.832;2023-09-19T01:23:26;100409.94;;;20.53;86.43
8101;BME280;4093;53.470;9.832;2023-09-19T01:26:29;100407.31;;;20.39;86.38
8101;BME280;4093;53.470;9.832;2023-09-19T01:29:12;100385.59;;;20.23;86.98
8101;BME280;4093;53.470;9.832;2023-09-19T01:31:49;100399.50;;;20.66;85.96
8101;BME280;4093;53.470;9.832;2023-09-19T01:34:17;100389.84;;;20.52;85.65
8101;BME280;4093;53.470;9.832;2023-09-19T01:36:45;100370.34;;;20.42;85.41
8101;BME280;4093;53.470;9.832;2023-09-19T01:39:14;100391.81;;;20.63;85.16
8101;BME280;4093;53.470;9.832;2023-09-19T01:41:51;100396.78;;;20.80;84.43
8101;BME280;4093;53.470;9.832;2023-09-19T01:44:25;100405.66;;;20.92;83.53
8101;BME280;4093;53.470;9.832;2023-09-19T01:47:00;100398.72;;;20.64;85.03
8101;BME280;4093;53.470;9.832;2023-09-19T01:49:37;100407.69;;;20.74;84.68
8101;BME280;4093;53.470;9.832;2023-09-19T01:52:13;100405.78;;;20.64;85.38
8101;BME280;4093;53.470;9.832;2023-09-19T01:54:48;100416.97;;;20.80;84.64
8101;BME280;4093;53.470;9.832;2023-09-19T01:57:22;100397.00;;;20.36;85.35
8101;BME280;4093;53.470;9.832;2023-09-19T02:00:02;100389.88;;;19.97;87.19
8101;BME280;4093;53.470;9.832;2023-09-19T02:02:35;100417.63;;;20.42;85.40
8101;BME280;4093;53.470;9.832;2023-09-19T02:05:04;100384.53;;;19.98;85.54
8101;BME280;4093;53.470;9.832;2023-09-19T02:07:32;100409.44;;;20.05;86.99
8101;BME280;4093;53.470;9.832;2023-09-19T02:10:02;100397.53;;;20.14;85.78
8101;BME280;4093;53.470;9.832;2023-09-19T02:12:31;100408.25;;;19.82;86.97
8101;BME280;4093;53.470;9.832;2023-09-19T02:14:59;100420.06;;;20.04;86.14
8101;BME280;4093;53.470;9.832;2023-09-19T02:17:27;100401.56;;;19.48;87.71
8101;BME280;4093;53.470;9.832;2023-09-19T02:19:56;100422.75;;;19.59;88.42
8101;BME280;4093;53.470;9.832;2023-09-19T02:22:25;100411.38;;;19.45;88.86
8101;BME280;4093;53.470;9.832;2023-09-19T02:24:53;100433.38;;;20.01;86.07
8101;BME280;4093;53.470;9.832;2023-09-19T02:27:20;100417.63;;;19.86;86.03
8101;BME280;4093;53.470;9.832;2023-09-19T02:29:48;100435.69;;;20.05;85.43
8101;BME280;4093;53.470;9.832;2023-09-19T02:32:16;100422.13;;;19.84;86.15
8101;BME280;4093;53.470;9.832;2023-09-19T02:34:45;100419.00;;;19.63;87.18
8101;BME280;4093;53.470;9.832;2023-09-19T02:37:14;100420.53;;;19.68;86.64
8101;BME280;4093;53.470;9.832;2023-09-19T02:39:42;100429.66;;;19.60;86.82
8101;BME280;4093;53.470;9.832;2023-09-19T02:42:10;100429.38;;;19.51;87.80
8101;BME280;4093;53.470;9.832;2023-09-19T02:44:38;100441.69;;;19.64;87.02
8101;BME280;4093;53.470;9.832;2023-09-19T02:47:06;100444.16;;;19.96;84.99
8101;BME280;4093;53.470;9.832;2023-09-19T02:49:34;100435.25;;;19.70;85.70
8101;BME280;4093;53.470;9.832;2023-09-19T02:52:03;100443.84;;;19.86;85.67
8101;BME280;4093;53.470;9.832;2023-09-19T02:54:32;100440.41;;;19.86;85.47
8101;BME280;4093;53.470;9.832;2023-09-19T02:57:00;100429.81;;;19.73;85.62
8101;BME280;4093;53.470;9.832;2023-09-19T02:59:31;100443.03;;;19.72;85.78
8101;BME280;4093;53.470;9.832;2023-09-19T03:01:59;100444.16;;;19.82;85.66
8101;BME280;4093;53.470;9.832;2023-09-19T03:04:29;100434.50;;;19.82;84.12
8101;BME280;4093;53.470;9.832;2023-09-19T03:06:57;100439.84;;;19.81;84.54
8101;BME280;4093;53.470;9.832;2023-09-19T03:09:27;100441.31;;;19.71;84.96
8101;BME280;4093;53.470;9.832;2023-09-19T03:11:56;100446.19;;;19.62;84.98
8101;BME280;4093;53.470;9.832;2023-09-19T03:14:25;100436.41;;;19.50;85.16
8101;BME280;4093;53.470;9.832;2023-09-19T03:16:56;100440.47;;;19.56;85.46
8101;BME280;4093;53.470;9.832;2023-09-19T03:19:24;100431.31;;;19.33;85.71
8101;BME280;4093;53.470;9.832;2023-09-19T03:21:52;100443.69;;;19.45;85.50
8101;BME280;4093;53.470;9.832;2023-09-19T03:24:21;100444.44;;;19.33;85.26
8101;BME280;4093;53.470;9.832;2023-09-19T03:26:49;100426.94;;;19.03;84.80
8101;BME280;4093;53.470;9.832;2023-09-19T03:29:19;100443.69;;;19.31;83.71
8101;BME280;4093;53.470;9.832;2023-09-19T03:31:46;100455.50;;;19.68;81.60
8101;BME280;4093;53.470;9.832;2023-09-19T03:34:15;100435.13;;;19.13;82.67
8101;BME280;4093;53.470;9.832;2023-09-19T03:36:43;100438.31;;;19.18;82.18
8101;BME280;4093;53.470;9.832;2023-09-19T03:39:11;100447.16;;;19.31;80.31
8101;BME280;4093;53.470;9.832;2023-09-19T03:41:42;100432.91;;;19.21;80.25
8101;BME280;4093;53.470;9.832;2023-09-19T03:44:09;100426.34;;;18.98;80.70
8101;BME280;4093;53.470;9.832;2023-09-19T03:46:39;100433.63;;;19.09;79.67
8101;BME280;4093;53.470;9.832;2023-09-19T03:49:07;100431.41;;;19.01;79.78
8101;BME280;4093;53.470;9.832;2023-09-19T03:51:35;100423.66;;;19.00;79.83
8101;BME280;4093;53.470;9.832;2023-09-19T03:54:04;100431.91;;;19.08;77.80
8101;BME280;4093;53.470;9.832;2023-09-19T03:56:31;100422.16;;;18.80;77.99
8101;BME280;4093;53.470;9.832;2023-09-19T03:58:59;100424.59;;;18.67;78.26
8101;BME280;4093;53.470;9.832;2023-09-19T04:01:27;100443.59;;;19.02;76.83
8101;BME280;4093;53.470;9.832;2023-09-19T04:03:58;100432.97;;;18.73;77.66
8101;BME280;4093;53.470;9.832;2023-09-19T04:06:34;100419.63;;;18.62;77.16
8101;BME280;4093;53.470;9.832;2023-09-19T04:09:03;100425.78;;;18.61;76.84
8101;BME280;4093;53.470;9.832;2023-09-19T04:11:30;100405.03;;;18.26;77.66
8101;BME280;4093;53.470;9.832;2023-09-19T04:13:58;100442.38;;;18.78;76.76
8101;BME280;4093;53.470;9.832;2023-09-19T04:16:26;100440.78;;;18.75;76.53
8101;BME280;4093;53.470;9.832;2023-09-19T04:18:54;100415.25;;;17.99;78.83
8101;BME280;4093;53.470;9.832;2023-09-19T04:21:23;100434.91;;;18.22;78.61
8101;BME280;4093;53.470;9.832;2023-09-19T04:23:51;100427.22;;;18.03;78.38
8101;BME280;4093;53.470;9.832;2023-09-19T04:26:18;100445.28;;;18.08;79.07
8101;BME280;4093;53.470;9.832;2023-09-19T04:28:46;100455.53;;;18.29;78.45
8101;BME280;4093;53.470;9.832;2023-09-19T04:31:14;100402.72;;;17.89;78.55
8101;BME280;4093;53.470;9.832;2023-09-19T04:33:43;100460.28;;;18.04;79.14
8101;BME280;4093;53.470;9.832;2023-09-19T04:36:11;100456.44;;;18.12;78.97
8101;BME280;4093;53.470;9.832;2023-09-19T04:39:01;100447.16;;;18.06;79.40
8101;BME280;4093;53.470;9.832;2023-09-19T04:41:31;100473.94;;;18.27;78.50
8101;BME280;4093;53.470;9.832;2023-09-19T04:43:59;100453.34;;;17.88;80.32
8101;BME280;4093;53.470;9.832;2023-09-19T04:46:26;100472.19;;;18.27;79.08
8101;BME280;4093;53.470;9.832;2023-09-19T04:48:54;100463.13;;;17.84;80.76
8101;BME280;4093;53.470;9.832;2023-09-19T04:51:22;100460.00;;;17.77;81.46
8101;BME280;4093;53.470;9.832;2023-09-19T04:53:50;100466.06;;;17.78;81.43
8101;BME280;4093;53.470;9.832;2023-09-19T04:56:19;100476.63;;;17.92;80.88
8101;BME280;4093;53.470;9.832;2023-09-19T04:58:47;100487.03;;;17.94;80.98
8101;BME280;4093;53.470;9.832;2023-09-19T05:01:15;100471.81;;;17.67;81.94
8101;BME280;4093;53.470;9.832;2023-09-19T05:03:43;100469.63;;;17.77;81.45
8101;BME280;4093;53.470;9.832;2023-09-19T05:06:11;100490.44;;;17.96;81.36
8101;BME280;4093;53.470;9.832;2023-09-19T05:08:39;100474.09;;;17.73;81.16
8101;BME280;4093;53.470;9.832;2023-09-19T05:11:07;100493.00;;;17.80;81.80
8101;BME280;4093;53.470;9.832;2023-09-19T05:13:36;100485.53;;;17.38;83.58
8101;BME280;4093;53.470;9.832;2023-09-19T05:16:04;100521.53;;;17.85;82.18
8101;BME280;4093;53.470;9.832;2023-09-19T05:18:32;100510.13;;;17.68;82.07
8101;BME280;4093;53.470;9.832;2023-09-19T05:21:02;100507.09;;;17.76;81.01
8101;BME280;4093;53.470;9.832;2023-09-19T05:23:29;100494.59;;;17.48;82.46
8101;BME280;4093;53.470;9.832;2023-09-19T05:25:57;100498.69;;;17.36;83.11
8101;BME280;4093;53.470;9.832;2023-09-19T05:28:26;100522.97;;;17.73;81.40
8101;BME280;4093;53.470;9.832;2023-09-19T05:30:55;100497.03;;;17.51;81.82
8101;BME280;4093;53.470;9.832;2023-09-19T05:33:25;100498.13;;;17.47;81.90
8101;BME280;4093;53.470;9.832;2023-09-19T05:35:53;100509.50;;;17.63;81.23
8101;BME280;4093;53.470;9.832;2023-09-19T05:38:22;100529.69;;;17.96;80.13
8101;BME280;4093;53.470;9.832;2023-09-19T05:40:50;100500.13;;;17.59;81.25
8101;BME280;4093;53.470;9.832;2023-09-19T05:43:18;100532.72;;;18.04;80.07
8101;BME280;4093;53.470;9.832;2023-09-19T05:45:46;100539.41;;;18.27;78.64
8101;BME280;4093;53.470;9.832;2023-09-19T05:48:15;100534.59;;;18.02;79.82
8101;BME280;4093;53.470;9.832;2023-09-19T05:50:43;100537.81;;;18.07;80.08
8101;BME280;4093;53.470;9.832;2023-09-19T05:53:13;100545.78;;;18.21;78.77
8101;BME280;4093;53.470;9.832;2023-09-19T05:55:41;100551.28;;;18.33;79.17
8101;BME280;4093;53.470;9.832;2023-09-19T05:58:09;100524.44;;;17.96;80.47
8101;BME280;4093;53.470;9.832;2023-09-19T06:00:40;100522.38;;;17.85;80.98
8101;BME280;4093;53.470;9.832;2023-09-19T06:03:10;100538.53;;;18.26;80.21
8101;BME280;4093;53.470;9.832;2023-09-19T06:05:41;100562.59;;;18.66;78.52
8101;BME280;4093;53.470;9.832;2023-09-19T06:08:09;100591.28;;;19.79;75.87
8101;BME280;4093;53.470;9.832;2023-09-19T06:10:37;100589.72;;;21.19;69.92
8101;BME280;4093;53.470;9.832;2023-09-19T06:13:05;100581.31;;;21.81;67.52
8101;BME280;4093;53.470;9.832;2023-09-19T06:15:36;100593.06;;;23.75;61.60
8101;BME280;4093;53.470;9.832;2023-09-19T06:18:04;100535.75;;;23.05;62.21
8101;BME280;4093;53.470;9.832;2023-09-19T06:20:32;100516.31;;;22.07;64.42
8101;BME280;4093;53.470;9.832;2023-09-19T06:23:02;100507.31;;;20.65;69.84
8101;BME280;4093;53.470;9.832;2023-09-19T06:25:30;100501.81;;;19.98;71.71
8101;BME280;4093;53.470;9.832;2023-09-19T06:27:58;100547.34;;;20.83;70.41
8101;BME280;4093;53.470;9.832;2023-09-19T06:30:26;100533.59;;;21.06;68.43
8101;BME280;4093;53.470;9.832;2023-09-19T06:32:56;100506.94;;;19.55;74.00
8101;BME280;4093;53.470;9.832;2023-09-19T06:35:24;100546.47;;;20.55;71.08
8101;BME280;4093;53.470;9.832;2023-09-19T06:37:53;100557.63;;;21.41;68.74
8101;BME280;4093;53.470;9.832;2023-09-19T06:40:26;100515.22;;;20.92;69.15
8101;BME280;4093;53.470;9.832;2023-09-19T06:42:54;100525.91;;;20.33;72.18
8101;BME280;4093;53.470;9.832;2023-09-19T06:45:23;100513.97;;;20.70;70.09
8101;BME280;4093;53.470;9.832;2023-09-19T06:47:53;100538.81;;;21.33;68.12
8101;BME280;4093;53.470;9.832;2023-09-19T06:50:25;100519.16;;;20.43;71.20
8101;BME280;4093;53.470;9.832;2023-09-19T06:52:55;100524.78;;;20.66;70.80
8101;BME280;4093;53.470;9.832;2023-09-19T06:55:26;100527.78;;;20.17;72.39
8101;BME280;4093;53.470;9.832;2023-09-19T06:57:58;100519.56;;;19.64;74.61
8101;BME280;4093;53.470;9.832;2023-09-19T07:00:26;100517.78;;;19.34;75.30
8101;BME280;4093;53.470;9.832;2023-09-19T07:02:56;100550.06;;;19.95;74.35
8101;BME280;4093;53.470;9.832;2023-09-19T07:05:25;100512.09;;;18.96;76.75
8101;BME280;4093;53.470;9.832;2023-09-19T07:07:54;100554.50;;;19.64;75.20
8101;BME280;4093;53.470;9.832;2023-09-19T07:10:22;100569.28;;;19.81;74.34
8101;BME280;4093;53.470;9.832;2023-09-19T07:12:57;100548.44;;;19.48;74.94
8101;BME280;4093;53.470;9.832;2023-09-19T07:15:25;100565.94;;;19.48;75.55
8101;BME280;4093;53.470;9.832;2023-09-19T07:17:54;100570.13;;;19.36;75.45
8101;BME280;4093;53.470;9.832;2023-09-19T07:20:24;100598.03;;;19.83;74.55
8101;BME280;4093;53.470;9.832;2023-09-19T07:22:53;100574.59;;;19.50;74.77
8101;BME280;4093;53.470;9.832;2023-09-19T07:25:21;100585.22;;;19.62;74.67
8101;BME280;4093;53.470;9.832;2023-09-19T07:27:49;100582.53;;;19.64;75.14
8101;BME280;4093;53.470;9.832;2023-09-19T07:30:19;100586.47;;;19.55;75.39
8101;BME280;4093;53.470;9.832;2023-09-19T07:32:47;100614.72;;;20.12;73.77
8101;BME280;4093;53.470;9.832;2023-09-19T07:35:15;100617.00;;;20.47;72.60
8101;BME280;4093;53.470;9.832;2023-09-19T07:37:42;100598.38;;;20.07;73.96
8101;BME280;4093;53.470;9.832;2023-09-19T07:40:11;100596.44;;;19.80;74.84
8101;BME280;4093;53.470;9.832;2023-09-19T07:42:39;100590.09;;;19.38;76.70
8101;BME280;4093;53.470;9.832;2023-09-19T07:45:08;100601.59;;;19.36;76.53
8101;BME280;4093;53.470;9.832;2023-09-19T07:47:37;100633.97;;;19.67;76.00
8101;BME280;4093;53.470;9.832;2023-09-19T07:50:06;100600.59;;;18.91;78.37
8101;BME280;4093;53.470;9.832;2023-09-19T07:52:34;100623.06;;;19.27;77.82
8101;BME280;4093;53.470;9.832;2023-09-19T07:55:01;100600.31;;;19.11;76.34
8101;BME280;4093;53.470;9.832;2023-09-19T07:57:35;100612.91;;;18.89;77.54
8101;BME280;4093;53.470;9.832;2023-09-19T08:00:04;100604.03;;;18.76;76.84
8101;BME280;4093;53.470;9.832;2023-09-19T08:02:34;100619.09;;;19.19;75.33
8101;BME280;4093;53.470;9.832;2023-09-19T08:05:07;100626.38;;;19.30;75.82
8101;BME280;4093;53.470;9.832;2023-09-19T08:07:36;100635.06;;;19.62;74.31
8101;BME280;4093;53.470;9.832;2023-09-19T08:10:06;100639.44;;;19.94;74.02
8101;BME280;4093;53.470;9.832;2023-09-19T08:12:39;100599.59;;;20.01;72.37
8101;BME280;4093;53.470;9.832;2023-09-19T08:15:13;100626.56;;;19.89;73.65
8101;BME280;4093;53.470;9.832;2023-09-19T08:17:41;100609.34;;;19.53;74.08
8101;BME280;4093;53.470;9.832;2023-09-19T08:20:11;100595.44;;;19.21;75.25
8101;BME280;4093;53.470;9.832;2023-09-19T08:22:43;100602.50;;;19.67;73.63
8101;BME280;4093;53.470;9.832;2023-09-19T08:25:14;100612.63;;;19.57;74.67
8101;BME280;4093;53.470;9.832;2023-09-19T08:27:44;100621.22;;;19.91;73.98
8101;BME280;4093;53.470;9.832;2023-09-19T08:30:14;100608.41;;;19.54;74.99
8101;BME280;4093;53.470;9.832;2023-09-19T08:32:42;100621.34;;;19.57;75.01
8101;BME280;4093;53.470;9.832;2023-09-19T08:35:11;100598.78;;;19.39;75.05
8101;BME280;4093;53.470;9.832;2023-09-19T08:37:39;100612.84;;;19.38;76.12
8101;BME280;4093;53.470;9.832;2023-09-19T08:40:08;100639.31;;;19.95;74.12
8101;BME280;4093;53.470;9.832;2023-09-19T08:42:49;100636.44;;;20.00;73.61
8101;BME280;4093;53.470;9.832;2023-09-19T08:45:17;100641.47;;;20.33;72.25
8101;BME280;4093;53.470;9.832;2023-09-19T08:47:46;100634.38;;;20.05;73.11
8101;BME280;4093;53.470;9.832;2023-09-19T08:50:19;100626.44;;;20.21;72.94
8101;BME280;4093;53.470;9.832;2023-09-19T08:52:51;100621.66;;;20.13;72.33
8101;BME280;4093;53.470;9.832;2023-09-19T08:55:23;100634.53;;;20.46;70.73
8101;BME280;4093;53.470;9.832;2023-09-19T08:58:00;100629.97;;;20.78;69.02
8101;BME280;4093;53.470;9.832;2023-09-19T09:00:28;100588.66;;;20.23;70.32
8101;BME280;4093;53.470;9.832;2023-09-19T09:02:57;100590.63;;;20.20;70.38
8101;BME280;4093;53.470;9.832;2023-09-19T09:05:29;100584.91;;;19.83;72.80
8101;BME280;4093;53.470;9.832;2023-09-19T09:07:59;100611.34;;;20.10;70.68
8101;BME280;4093;53.470;9.832;2023-09-19T09:10:27;100614.06;;;20.23;71.80
8101;BME280;4093;53.470;9.832;2023-09-19T09:12:55;100629.94;;;20.93;69.75
8101;BME280;4093;53.470;9.832;2023-09-19T09:15:26;100628.50;;;21.16;68.72
8101;BME280;4093;53.470;9.832;2023-09-19T09:17:57;100614.41;;;21.17;67.91
8101;BME280;4093;53.470;9.832;2023-09-19T09:20:27;100620.56;;;21.30;66.89
8101;BME280;4093;53.470;9.832;2023-09-19T09:22:57;100612.22;;;21.38;66.84
8101;BME280;4093;53.470;9.832;2023-09-19T09:25:48;100601.56;;;21.12;67.20
8101;BME280;4093;53.470;9.832;2023-09-19T09:28:20;100629.13;;;22.01;65.63
8101;BME280;4093;53.470;9.832;2023-09-19T09:30:48;100616.59;;;21.91;65.23
8101;BME280;4093;53.470;9.832;2023-09-19T09:33:17;100588.78;;;21.87;64.11
8101;BME280;4093;53.470;9.832;2023-09-19T09:35:53;100586.56;;;21.41;64.85
8101;BME280;4093;53.470;9.832;2023-09-19T09:38:25;100601.47;;;21.68;64.30
8101;BME280;4093;53.470;9.832;2023-09-19T09:40:59;100608.75;;;21.77;64.74
8101;BME280;4093;53.470;9.832;2023-09-19T09:43:29;100592.69;;;21.55;63.70
8101;BME280;4093;53.470;9.832;2023-09-19T09:46:09;100580.19;;;21.31;64.23
8101;BME280;4093;53.470;9.832;2023-09-19T09:49:00;100594.13;;;21.73;64.01
8101;BME280;4093;53.470;9.832;2023-09-19T09:51:48;100598.75;;;21.69;63.76
8101;BME280;4093;53.470;9.832;2023-09-19T09:54:25;100603.78;;;21.60;63.09
8101;BME280;4093;53.470;9.832;2023-09-19T09:57:00;100582.72;;;21.33;63.49
8101;BME280;4093;53.470;9.832;2023-09-19T09:59:49;100612.38;;;22.02;62.94
8101;BME280;4093;53.470;9.832;2023-09-19T10:02:18;100601.69;;;22.17;61.81
8101;BME280;4093;53.470;9.832;2023-09-19T10:04:52;100615.72;;;22.56;62.07
8101;BME280;4093;53.470;9.832;2023-09-19T10:07:28;100541.81;;;22.45;61.43
8101;BME280;4093;53.470;9.832;2023-09-19T10:10:00;100576.88;;;21.82;62.73
8101;BME280;4093;53.470;9.832;2023-09-19T10:12:44;100600.16;;;22.01;61.88
8101;BME280;4093;53.470;9.832;2023-09-19T10:15:17;100600.09;;;22.40;61.00
8101;BME280;4093;53.470;9.832;2023-09-19T10:17:47;100572.28;;;21.58;62.21
8101;BME280;4093;53.470;9.832;2023-09-19T10:20:16;100575.66;;;21.33;62.02
8101;BME280;4093;53.470;9.832;2023-09-19T10:23:04;100607.44;;;21.97;61.44
8101;BME280;4093;53.470;9.832;2023-09-19T10:25:37;100599.13;;;22.03;62.13
8101;BME280;4093;53.470;9.832;2023-09-19T10:28:06;100600.16;;;22.01;60.65
8101;BME280;4093;53.470;9.832;2023-09-19T10:30:41;100605.44;;;22.01;60.84
8101;BME280;4093;53.470;9.832;2023-09-19T10:33:12;100592.13;;;21.89;60.43
8101;BME280;4093;53.470;9.832;2023-09-19T10:35:42;100552.38;;;21.54;61.23
8101;BME280;4093;53.470;9.832;2023-09-19T10:38:14;100581.56;;;21.64;61.90
8101;BME280;4093;53.470;9.832;2023-09-19T10:40:48;100612.22;;;22.30;60.73
8101;BME280;4093;53.470;9.832;2023-09-19T10:43:19;100590.72;;;22.36;60.17
8101;BME280;4093;53.470;9.832;2023-09-19T10:45:48;100581.00;;;21.99;61.35
8101;BME280;4093;53.470;9.832;2023-09-19T10:48:19;100586.06;;;22.02;60.75
8101;BME280;4093;53.470;9.832;2023-09-19T10:50:58;100591.50;;;21.73;61.46
8101;BME280;4093;53.470;9.832;2023-09-19T10:53:42;100601.94;;;21.47;62.40
8101;BME280;4093;53.470;9.832;2023-09-19T10:56:17;100592.22;;;21.35;62.84
8101;BME280;4093;53.470;9.832;2023-09-19T10:58:46;100602.75;;;21.35;62.79
8101;BME280;4093;53.470;9.832;2023-09-19T11:01:16;100584.19;;;20.68;63.76
8101;BME280;4093;53.470;9.832;2023-09-19T11:03:44;100634.28;;;21.89;61.61
8101;BME280;4093;53.470;9.832;2023-09-19T11:06:13;100632.47;;;22.43;59.26
8101;BME280;4093;53.470;9.832;2023-09-19T11:08:58;100596.06;;;21.44;61.81
8101;BME280;4093;53.470;9.832;2023-09-19T11:11:50;100618.69;;;21.99;60.88
8101;BME280;4093;53.470;9.832;2023-09-19T11:14:38;100571.69;;;21.67;60.56
8101;BME280;4093;53.470;9.832;2023-09-19T11:17:34;100598.63;;;21.71;59.93
8101;BME280;4093;53.470;9.832;2023-09-19T11:20:23;100605.22;;;21.91;58.99
8101;BME280;4093;53.470;9.832;2023-09-19T11:23:22;100559.84;;;22.38;57.92
8101;BME280;4093;53.470;9.832;2023-09-19T11:25:53;100583.03;;;21.68;59.78
8101;BME280;4093;53.470;9.832;2023-09-19T11:28:34;100575.06;;;21.69;60.37
8101;BME280;4093;53.470;9.832;2023-09-19T11:34:47;100610.84;;;21.59;60.98
8101;BME280;4093;53.470;9.832;2023-09-19T11:40:29;100591.69;;;21.16;62.63
8101;BME280;4093;53.470;9.832;2023-09-19T11:42:58;100604.59;;;21.33;61.77
8101;BME280;4093;53.470;9.832;2023-09-19T11:48:32;100609.00;;;22.00;60.77
8101;BME280;4093;53.470;9.832;2023-09-19T11:51:01;100602.41;;;22.45;59.75
8101;BME280;4093;53.470;9.832;2023-09-19T11:53:42;100607.78;;;22.18;60.76
8101;BME280;4093;53.470;9.832;2023-09-19T11:56:11;100598.97;;;22.32;59.82
8101;BME280;4093;53.470;9.832;2023-09-19T11:58:43;100587.09;;;21.99;60.82
8101;BME280;4093;53.470;9.832;2023-09-19T12:01:15;100590.47;;;22.14;60.83
8101;BME280;4093;53.470;9.832;2023-09-19T12:03:49;100604.41;;;22.67;59.88
8101;BME280;4093;53.470;9.832;2023-09-19T12:06:21;100597.19;;;21.92;61.08
8101;BME280;4093;53.470;9.832;2023-09-19T12:08:50;100603.09;;;21.83;61.61
8101;BME280;4093;53.470;9.832;2023-09-19T12:11:21;100586.06;;;22.02;60.53
8101;BME280;4093;53.470;9.832;2023-09-19T12:13:51;100598.97;;;22.19;60.99
8101;BME280;4093;53.470;9.832;2023-09-19T12:16:20;100615.81;;;22.42;59.59
8101;BME280;4093;53.470;9.832;2023-09-19T12:18:51;100595.09;;;21.85;61.09
8101;BME280;4093;53.470;9.832;2023-09-19T12:21:25;100590.66;;;21.85;61.16
8101;BME280;4093;53.470;9.832;2023-09-19T12:23:59;100600.19;;;22.13;60.48
8101;BME280;4093;53.470;9.832;2023-09-19T12:26:27;100595.94;;;21.85;60.38
8101;BME280;4093;53.470;9.832;2023-09-19T12:28:57;100609.50;;;22.19;59.38
8101;BME280;4093;53.470;9.832;2023-09-19T12:31:25;100569.19;;;21.91;59.76
8101;BME280;4093;53.470;9.832;2023-09-19T12:33:54;100602.41;;;22.58;58.99
8101;BME280;4093;53.470;9.832;2023-09-19T12:36:23;100603.75;;;22.76;58.24
8101;BME280;4093;53.470;9.832;2023-09-19T12:38:56;100582.72;;;22.25;59.06
8101;BME280;4093;53.470;9.832;2023-09-19T12:41:26;100588.41;;;22.32;58.70
8101;BME280;4093;53.470;9.832;2023-09-19T12:43:54;100576.59;;;22.37;58.50
8101;BME280;4093;53.470;9.832;2023-09-19T12:46:23;100587.44;;;22.58;58.30
8101;BME280;4093;53.470;9.832;2023-09-19T12:49:16;100598.22;;;22.92;57.23
8101;BME280;4093;53.470;9.832;2023-09-19T12:51:45;100576.28;;;22.92;57.83
8101;BME280;4093;53.470;9.832;2023-09-19T12:54:14;100598.38;;;23.63;57.03
8101;BME280;4093;53.470;9.832;2023-09-19T12:56:44;100582.72;;;23.24;58.02
8101;BME280;4093;53.470;9.832;2023-09-19T12:59:15;100574.78;;;23.13;56.57
8101;BME280;4093;53.470;9.832;2023-09-19T13:01:45;100557.00;;;22.42;56.85
8101;BME280;4093;53.470;9.832;2023-09-19T13:04:16;100573.47;;;22.82;57.25
8101;BME280;4093;53.470;9.832;2023-09-19T13:06:52;100579.03;;;22.90;56.57
8101;BME280;4093;53.470;9.832;2023-09-19T13:09:22;100544.97;;;21.86;57.99
8101;BME280;4093;53.470;9.832;2023-09-19T13:11:51;100553.72;;;22.38;57.38
8101;BME280;4093;53.470;9.832;2023-09-19T13:14:21;100553.34;;;22.68;57.20
8101;BME280;4093;53.470;9.832;2023-09-19T13:16:56;100558.13;;;23.24;56.21
8101;BME280;4093;53.470;9.832;2023-09-19T13:19:41;100517.75;;;22.50;57.89
8101;BME280;4093;53.470;9.832;2023-09-19T13:22:38;100555.41;;;22.39;56.99
8101;BME280;4093;53.470;9.832;2023-09-19T13:25:08;100551.28;;;22.60;56.37
8101;BME280;4093;53.470;9.832;2023-09-19T13:27:41;100543.63;;;22.81;56.32
8101;BME280;4093;53.470;9.832;2023-09-19T13:30:11;100557.63;;;23.19;55.88
8101;BME280;4093;53.470;9.832;2023-09-19T13:32:41;100470.53;;;21.84;56.63
8101;BME280;4093;53.470;9.832;2023-09-19T13:35:10;100530.75;;;22.27;57.65
8101;BME280;4093;53.470;9.832;2023-09-19T13:37:39;100557.09;;;23.38;55.58
8101;BME280;4093;53.470;9.832;2023-09-19T13:40:10;100529.84;;;22.65;56.35